• Join FlightAware (Why Join?)
  • Login
  • US Flag 
11:02AM EDT


 

Airport Tracker/Info


-or-


 

Live Flight TrackerFlight Track Log ✈ EJA226 ✈ 20-Oct-2013 ✈ KRIL - KDAL

Flight Track Log - Related Links

Times and Time Zones

All times are in EDT time to prevent confusion due to time zone crossing. See the EJA226 flight status page for this flight to view local times or setup timezone preferences in your user account.

Time Position Orientation Groundspeed Altitude Reporting Facility
EDT Latitude Longitude Course Direction KTS MPH feet Rate Location/Type
08:30PM 39.5208 -107.8247 247° West 173 199 9,900  Level Denver Center
08:31PM 39.4958 -107.8994 247° West 229 264 13,400 3,000 Climbing Denver Center
08:32PM 39.4336 -107.9161 192° South 268 308 16,200 2,400 Climbing Denver Center
08:33PM 39.3678 -107.8231 132° Southeast 322 371 18,400 2,040 Climbing Denver Center
08:34PM 39.3067 -107.7256 129° Southeast 358 412 20,500 2,160 Climbing Denver Center
08:35PM 39.2292 -107.5994 128° Southeast 399 459 22,900 2,220 Climbing Denver Center
08:36PM 39.1603 -107.4897 129° Southeast 409 471 25,200 1,620 Climbing Denver Center
08:37PM 39.0742 -107.3528 129° Southeast 433 498 26,300 1,200 Climbing Denver Center
08:38PM 38.9956 -107.2272 129° Southeast 461 531 27,800 1,500 Climbing Denver Center
08:39PM 38.9025 -107.0792 129° Southeast 473 544 29,400 1,500 Climbing Denver Center
08:41PM 38.7308 -106.8058 129° Southeast 486 559 32,500 1,380 Climbing Denver Center
08:42PM 38.6467 -106.6722 129° Southeast 484 557 33,700 1,200 Climbing Denver Center
08:43PM 38.5606 -106.5381 129° Southeast 486 559 35,000 1,200 Climbing Denver Center
08:44PM 38.4747 -106.4039 129° Southeast 488 562 36,200 1,140 Climbing Denver Center
08:45PM 38.3908 -106.2719 129° Southeast 481 554 37,400 1,080 Climbing Denver Center
08:46PM 38.2942 -106.1206 129° Southeast 477 549 38,500 960 Climbing Denver Center
08:47PM 38.2125 -105.9967 130° Southeast 476 548 39,400 840 Climbing Denver Center
08:48PM 38.1167 -105.8506 130° Southeast 481 554 40,300 780 Climbing Denver Center
08:49PM 38.0361 -105.7250 129° Southeast 480 552 41,100 300 Climbing Denver Center
08:50PM 37.9381 -105.5761 130° Southeast 492 566 41,000 -60 Descending Denver Center
08:51PM 37.8500 -105.4436 130° Southeast 511 588 41,000  Level Denver Center
08:52PM 37.7494 -105.2892 129° Southeast 512 589 41,000  Level Denver Center
08:53PM 37.6606 -105.1572 130° Southeast 513 590 41,000  Level Denver Center
08:54PM 37.5589 -105.0031 130° Southeast 512 589 41,000  Level Denver Center
08:55PM 37.4692 -104.8703 130° Southeast 518 596 41,000  Level Denver Center
08:56PM 37.3803 -104.7369 130° Southeast 521 600 41,000  Level Denver Center
08:58PM 37.2758 -104.5839 131° Southeast 520 598 41,000  Level Denver Center
08:59PM 37.1881 -104.4544 130° Southeast 514 592 41,000  Level Denver Center
09:00PM 37.0850 -104.3036 131° Southeast 513 590 41,000  Level Denver Center
09:01PM 36.9972 -104.1756 131° Southeast 510 587 41,000  Level Denver Center
09:02PM 36.8933 -104.0247 131° Southeast 513 590 41,000  Level Denver Center
09:03PM 36.8061 -103.8967 130° Southeast 510 587 41,000  Level Denver Center
09:04PM 36.7011 -103.7469 131° Southeast 513 590 41,000  Level Denver Center
09:05PM 36.5756 -103.5683 131° Southeast 510 587 41,000  Level Albuquerque Center
09:06PM 36.4650 -103.4114 131° Southeast 511 588 41,000  Level Albuquerque Center
09:07PM 36.3694 -103.2742 131° Southeast 517 595 41,000  Level Albuquerque Center
09:08PM 36.2753 -103.1392 131° Southeast 513 590 41,000  Level Albuquerque Center
09:09PM 36.1794 -103.0058 132° Southeast 513 590 41,000  Level Albuquerque Center
09:10PM 36.0928 -102.8842 131° Southeast 513 590 41,000  Level Albuquerque Center
09:11PM 35.9986 -102.7508 131° Southeast 516 594 41,000  Level Albuquerque Center
09:12PM 35.8856 -102.5933 132° Southeast 512 589 41,000  Level Albuquerque Center
09:13PM 35.7906 -102.4625 132° Southeast 512 589 41,000  Level Albuquerque Center
09:14PM 35.6969 -102.3322 131° Southeast 510 587 41,000  Level Albuquerque Center
09:15PM 35.6019 -102.2014 132° Southeast 512 589 41,000  Level Albuquerque Center
09:16PM 35.5072 -102.0722 132° Southeast 511 588 41,000  Level Albuquerque Center
09:17PM 35.4147 -101.9450 132° Southeast 508 585 41,000  Level Albuquerque Center
09:18PM 35.3214 -101.8158 132° Southeast 502 578 41,000  Level Albuquerque Center
09:20PM 35.2303 -101.6539 125° Southeast 502 578 41,000  Level Albuquerque Center
09:21PM 35.1889 -101.4892 107° East 519 597 41,000  Level Albuquerque Center
09:22PM 35.1553 -101.3219 104° East 510 587 41,000  Level Albuquerque Center
09:23PM 35.1197 -101.1639 105° East 515 593 41,000  Level Albuquerque Center
09:24PM 35.0831 -100.9947 105° East 517 595 41,000  Level Albuquerque Center
09:25PM 35.0169 -100.8031 113° Southeast 518 596 41,000  Level Albuquerque Center
09:26PM 34.9483 -100.6508 119° Southeast 514 592 41,000  Level Albuquerque Center
09:27PM 34.8803 -100.4989 119° Southeast 512 589 41,000  Level Albuquerque Center
09:28PM 34.8069 -100.3372 119° Southeast 507 583 41,000  Level Albuquerque Center
09:29PM 34.7394 -100.1886 119° Southeast 504 580 41,000 -300 Level Albuquerque Center
09:30PM 34.6706 -100.0397 119° Southeast 505 581 40,400 -1,020 Descending Albuquerque Center
09:31PM 34.6042 -99.8936 119° Southeast 499 574 39,000 -1,380 Descending Albuquerque Center
09:31PM 34.5697 -99.8092 116° Southeast 498 573 38,300 -1,560 Descending Fort Worth Center
09:32PM 34.5053 -99.6789 121° Southeast 500 575 36,700 -1,680 Descending Fort Worth Center
09:33PM 34.4392 -99.5336 119° Southeast 494 568 35,000 -1,740 Descending Fort Worth Center
09:34PM 34.3872 -99.3839 113° Southeast 484 557 33,300 -1,800 Descending Fort Worth Center
09:35PM 34.3356 -99.2217 111° Southeast 479 551 31,400 -1,680 Descending Fort Worth Center
09:36PM 34.2875 -99.0800 112° Southeast 465 535 30,000 -1,440 Descending Fort Worth Center
09:37PM 34.2411 -98.9358 111° Southeast 460 529 28,600 -1,380 Descending Fort Worth Center
09:38PM 34.1739 -98.8042 122° Southeast 447 514 27,300 -1,440 Descending Fort Worth Center
09:39PM 34.1022 -98.6725 123° Southeast 460 529 25,800 -1,500 Descending Fort Worth Center
09:40PM 34.0306 -98.5289 121° Southeast 482 555 24,400 -900 Descending Fort Worth Center
09:41PM 33.9586 -98.3975 123° Southeast 482 555 24,000 -660 Descending Fort Worth Center
09:42PM 33.8867 -98.2667 123° Southeast 477 549 23,100 -1,500 Descending Fort Worth Center
09:43PM 33.8144 -98.1358 124° Southeast 477 549 21,100 -1,980 Descending Fort Worth Center
09:44PM 33.7442 -98.0031 122° Southeast 475 547 19,200 -2,040 Descending Fort Worth Center
09:45PM 33.6819 -97.8903 124° Southeast 468 539 17,100 -1,980 Descending Fort Worth Center
09:46PM 33.6114 -97.7625 124° Southeast 468 539 15,300 -1,920 Descending Fort Worth Center
09:47PM 33.5408 -97.6353 124° Southeast 461 531 13,300 -2,040 Descending Fort Worth Center
09:48PM 33.4761 -97.5181 123° Southeast 441 507 11,300 -1,620 Descending Fort Worth Center
09:49PM 33.4033 -97.4233 133° Southeast 378 435 10,100 -1,380 Descending Fort Worth Center
09:50PM 33.3781 -97.3414 110° East 305 351 8,600 -1,800 Descending Fort Worth Center
09:51PM 33.3675 -97.2319 97° East 292 336 6,600 -1,920 Descending Fort Worth Center
09:52PM 33.3675 -97.1325 90° East 292 336 4,800 -1,320 Descending Fort Worth Center
09:53PM 33.3631 -97.0478 94° East 292 336 4,000 -420 Descending Fort Worth Center
09:54PM 33.3231 -96.9611 119° Southeast 266 306 4,000  Level Fort Worth Center
09:55PM 33.2728 -96.8942 132° Southeast 266 306 4,000  Level Fort Worth Center
09:56PM 33.2142 -96.8547 151° Southeast 259 298 4,000  Level Fort Worth Center
09:57PM 33.1514 -96.8428 171° South 248 285 4,000 -540 Level Fort Worth Center
09:58PM 33.0764 -96.8556 188° South 248 285 3,000 -540 Descending Fort Worth Center
09:59PM 33.0242 -96.8708 194° South 236 272 3,000 -120 Level Fort Worth Center
10:00PM 32.9700 -96.8886 195° South 224 258 2,800 -600 Descending Fort Worth Center
10:02PM 32.9000 -96.9000 188° South 139 160 1,600 -720 Descending Dallas / Fort Worth TRACON
10:03PM 32.8833 -96.8833 140° Southeast 100 115 1,200 -480 Descending Dallas / Fort Worth TRACON
10:05PM 32.8471 -96.8518 140° Southeast  Level Estimated
10:12PM 32.8471 -96.8518 140° Southeast  Level Estimated